createdAt,value
2018-11-28T00:00:38.313Z,102031.84
2018-11-28T00:03:08.701Z,102029.77
2018-11-28T00:05:38.207Z,102030.66
2018-11-28T00:08:07.561Z,102022.53
2018-11-28T00:10:37.102Z,102018.73
2018-11-28T00:13:06.461Z,102020.52
2018-11-28T00:15:35.845Z,102022.70
2018-11-28T00:18:05.585Z,102011.89
2018-11-28T00:20:34.961Z,102012.00
2018-11-28T00:23:04.390Z,102009.42
2018-11-28T00:25:33.745Z,102012.79
2018-11-28T00:28:03.199Z,102018.44
2018-11-28T00:30:32.585Z,102004.77
2018-11-28T00:33:02.012Z,102007.44
2018-11-28T00:35:31.552Z,102005.66
2018-11-28T00:38:00.994Z,102007.73
2018-11-28T00:40:30.414Z,101998.31
2018-11-28T00:42:59.793Z,102002.58
2018-11-28T00:45:29.353Z,101994.84
2018-11-28T00:47:58.812Z,102001.29
2018-11-28T00:50:28.634Z,102011.10
2018-11-28T00:52:57.996Z,102019.34
2018-11-28T00:55:27.439Z,102012.50
2018-11-28T00:57:56.839Z,102012.09
2018-11-28T01:00:27.165Z,102015.86
2018-11-28T01:02:56.717Z,102024.39
2018-11-28T01:05:26.085Z,102030.44
2018-11-28T01:07:56.294Z,102024.28
2018-11-28T01:10:26.166Z,102024.91
2018-11-28T01:12:55.721Z,102036.80
2018-11-28T01:15:25.114Z,102040.35
2018-11-28T01:17:54.524Z,102036.17
2018-11-28T01:20:24.605Z,102038.47
2018-11-28T01:22:53.957Z,102036.87
2018-11-28T01:25:23.586Z,102046.28
2018-11-28T01:27:53.075Z,102050.83
2018-11-28T01:30:24.178Z,102053.80
2018-11-28T01:32:53.533Z,102047.25
2018-11-28T01:35:23.294Z,102047.97
2018-11-28T01:37:52.866Z,102041.71
2018-11-28T01:40:24.011Z,102037.03
2018-11-28T01:42:53.796Z,102044.48
2018-11-28T01:45:24.150Z,102042.47
2018-11-28T01:47:53.520Z,102032.35
2018-11-28T01:50:23.268Z,102036.00
2018-11-28T01:52:52.617Z,102049.27
2018-11-28T01:55:22.800Z,102047.70
2018-11-28T01:57:52.500Z,102035.89
2018-11-28T02:00:23.622Z,102037.86
2018-11-28T02:02:57.485Z,102037.94
2018-11-28T02:05:26.913Z,102046.77
2018-11-28T02:07:56.282Z,102038.72
2018-11-28T02:10:25.673Z,102034.35
2018-11-28T02:12:54.121Z,102029.09
2018-11-28T02:15:25.786Z,102034.24
2018-11-28T02:17:56.061Z,102040.28
2018-11-28T02:20:25.412Z,102036.42
2018-11-28T02:22:54.868Z,102041.18
2018-11-28T02:25:24.226Z,102040.78
2018-11-28T02:27:53.582Z,102035.92
2018-11-28T02:30:22.996Z,102039.89
2018-11-28T02:32:52.356Z,102042.47
2018-11-28T02:35:21.738Z,102042.08
2018-11-28T02:37:51.092Z,102055.84
2018-11-28T02:40:20.815Z,102051.59
2018-11-28T02:42:50.969Z,102057.13
2018-11-28T02:45:22.739Z,102063.56
2018-11-28T02:47:53.015Z,102057.13
2018-11-28T02:50:22.386Z,102068.82
2018-11-28T02:52:51.842Z,102057.23
2018-11-28T02:55:21.353Z,102058.59
2018-11-28T02:57:51.345Z,102061.16
2018-11-28T03:00:23.435Z,102050.70
2018-11-28T03:02:53.155Z,102060.15
2018-11-28T03:05:22.897Z,102057.95
2018-11-28T03:07:52.342Z,102061.39
2018-11-28T03:10:23.201Z,102063.57
2018-11-28T03:12:52.627Z,102073.25
2018-11-28T03:15:54.201Z,102066.91
2018-11-28T03:18:24.392Z,102074.50
2018-11-28T03:20:53.881Z,102075.39
2018-11-28T03:23:23.385Z,102079.35
2018-11-28T03:25:52.825Z,102077.36
2018-11-28T03:28:22.280Z,102082.95
2018-11-28T03:30:51.730Z,102080.92
2018-11-28T03:33:21.221Z,102076.33
2018-11-28T03:35:50.713Z,102084.36
2018-11-28T03:38:20.197Z,102085.04
2018-11-28T03:40:49.725Z,102087.94
2018-11-28T03:43:19.212Z,102082.20
2018-11-28T03:45:48.671Z,102082.22
2018-11-28T03:48:22.488Z,102087.67
2018-11-28T03:50:52.372Z,102089.86
2018-11-28T03:53:21.844Z,102087.94
2018-11-28T03:55:51.364Z,102098.34
2018-11-28T03:58:20.808Z,102098.91
2018-11-28T04:00:50.388Z,102100.34
2018-11-28T04:03:19.838Z,102091.39
2018-11-28T04:05:49.285Z,102096.81
2018-11-28T04:08:18.892Z,102102.03
2018-11-28T04:10:48.332Z,102109.73
2018-11-28T04:13:17.801Z,102111.42
2018-11-28T04:15:47.424Z,102114.08
2018-11-28T04:18:16.912Z,102110.41
2018-11-28T04:20:46.331Z,102113.88
2018-11-28T04:23:15.821Z,102115.69
2018-11-28T04:25:45.304Z,102115.44
2018-11-28T04:28:14.852Z,102126.47
2018-11-28T04:30:44.327Z,102120.73
2018-11-28T04:33:13.840Z,102122.54
2018-11-28T04:35:43.287Z,102121.13
2018-11-28T04:38:12.857Z,102122.16
2018-11-28T04:40:42.309Z,102128.23
2018-11-28T04:43:11.753Z,102127.08
2018-11-28T04:45:41.210Z,102127.34
2018-11-28T04:48:10.659Z,102131.31
2018-11-28T04:50:40.106Z,102127.34
2018-11-28T04:53:09.698Z,102129.65
2018-11-28T04:55:39.148Z,102129.91
2018-11-28T04:58:08.761Z,102127.34
2018-11-28T05:00:38.397Z,102120.03
2018-11-28T05:03:07.948Z,102121.09
2018-11-28T05:05:37.443Z,102120.08
2018-11-28T05:08:07.160Z,102118.80
2018-11-28T05:10:36.576Z,102120.97
2018-11-28T05:13:06.140Z,102128.02
2018-11-28T05:15:35.624Z,102129.43
2018-11-28T05:18:05.278Z,102123.41
2018-11-28T05:20:35.598Z,102128.41
2018-11-28T05:23:06.837Z,102127.00
2018-11-28T05:25:36.880Z,102133.05
2018-11-28T05:28:06.486Z,102136.73
2018-11-28T05:30:36.100Z,102135.58
2018-11-28T05:33:06.088Z,102136.99
2018-11-28T05:35:40.210Z,102145.22
2018-11-28T05:38:13.508Z,102140.61
2018-11-28T05:40:44.422Z,102141.63
2018-11-28T05:43:13.904Z,102147.66
2018-11-28T05:45:43.499Z,102153.28
2018-11-28T05:48:12.957Z,102146.27
2018-11-28T05:50:42.439Z,102148.06
2018-11-28T05:53:11.932Z,102149.47
2018-11-28T05:55:41.497Z,102152.53
2018-11-28T05:58:10.956Z,102160.22
2018-11-28T06:00:41.257Z,102159.61
2018-11-28T06:03:13.230Z,102160.76
2018-11-28T06:05:43.519Z,102166.00
2018-11-28T06:08:13.048Z,102166.38
2018-11-28T06:10:42.544Z,102169.59
2018-11-28T06:13:12.948Z,102162.67
2018-11-28T06:15:42.401Z,102166.64
2018-11-28T06:18:11.906Z,102170.48
2018-11-28T06:20:41.411Z,102170.88
2018-11-28T06:23:10.915Z,102177.14
2018-11-28T06:25:40.384Z,102175.22
2018-11-28T06:28:09.908Z,102174.70
2018-11-28T06:30:39.448Z,102175.87
2018-11-28T06:33:08.915Z,102180.73
2018-11-28T06:35:38.381Z,102181.11
2018-11-28T06:38:07.839Z,102178.55
2018-11-28T06:40:37.356Z,102177.66
2018-11-28T06:43:07.040Z,102180.59
2018-11-28T06:45:39.542Z,102179.96
2018-11-28T06:48:08.973Z,102181.11
2018-11-28T06:50:38.585Z,102195.70
2018-11-28T06:53:08.133Z,102192.25
2018-11-28T06:55:37.704Z,102197.37
2018-11-28T06:58:07.337Z,102198.40
2018-11-28T07:00:36.906Z,102194.02
2018-11-28T07:03:06.505Z,102198.39
2018-11-28T07:05:35.988Z,102203.64
2018-11-28T07:08:06.008Z,102200.97
2018-11-28T07:10:35.529Z,102202.50
2018-11-28T07:13:05.444Z,102210.05
2018-11-28T07:15:34.900Z,102206.34
2018-11-28T07:18:21.484Z,102210.54
2018-11-28T07:20:50.984Z,102213.88
2018-11-28T07:23:20.417Z,102216.97
2018-11-28T07:25:49.852Z,102216.56
2018-11-28T07:28:19.460Z,102213.49
2018-11-28T07:30:48.966Z,102218.23
2018-11-28T07:33:18.486Z,102218.45
2018-11-28T07:35:47.944Z,102212.11
2018-11-28T07:38:17.404Z,102219.75
2018-11-28T07:40:46.876Z,102215.09
2018-11-28T07:43:16.540Z,102216.70
2018-11-28T07:45:49.197Z,102221.27
2018-11-28T07:48:18.693Z,102226.19
2018-11-28T07:50:48.209Z,102220.31
2018-11-28T07:53:17.717Z,102224.17
2018-11-28T07:55:47.128Z,102225.02
2018-11-28T07:58:16.606Z,102222.23
2018-11-28T08:00:46.037Z,102226.13
2018-11-28T08:03:15.512Z,102227.45
2018-11-28T08:05:45.008Z,102231.13
2018-11-28T08:08:14.460Z,102227.17
2018-11-28T08:10:43.888Z,102227.62
2018-11-28T08:13:13.347Z,102229.70
2018-11-28T08:15:42.762Z,102236.03
2018-11-28T08:18:12.196Z,102234.55
2018-11-28T08:20:41.619Z,102232.06
2018-11-28T08:23:11.108Z,102239.36
2018-11-28T08:25:40.560Z,102237.47
2018-11-28T08:28:09.984Z,102232.02
2018-11-28T08:30:39.436Z,102227.64
2018-11-28T08:33:08.877Z,102234.05
2018-11-28T08:35:38.329Z,102235.22
2018-11-28T08:38:07.941Z,102232.52
2018-11-28T08:40:37.372Z,102234.64
2018-11-28T08:43:07.150Z,102230.70
2018-11-28T08:45:37.137Z,102240.66
2018-11-28T08:48:06.952Z,102239.59
2018-11-28T08:50:38.127Z,102229.75
2018-11-28T08:53:08.274Z,102237.77
2018-11-28T08:55:37.725Z,102232.55
2018-11-28T08:58:07.180Z,102231.73
2018-11-28T09:00:37.144Z,102233.84
2018-11-28T09:03:07.437Z,102231.52
2018-11-28T09:05:36.959Z,102228.09
2018-11-28T09:08:06.440Z,102225.85
2018-11-28T09:10:35.882Z,102236.05
2018-11-28T09:13:05.746Z,102233.91
2018-11-28T09:15:35.316Z,102230.47
2018-11-28T09:18:05.043Z,102231.11
2018-11-28T09:20:34.621Z,102232.01
2018-11-28T09:23:04.178Z,102234.25
2018-11-28T09:25:33.648Z,102240.85
2018-11-28T09:28:03.183Z,102232.88
2018-11-28T09:30:32.672Z,102226.19
2018-11-28T09:33:02.188Z,102226.73
2018-11-28T09:35:31.917Z,102232.54
2018-11-28T09:38:01.364Z,102235.30
2018-11-28T09:40:30.814Z,102232.39
2018-11-28T09:43:00.689Z,102235.55
2018-11-28T09:45:30.368Z,102230.42
2018-11-28T09:47:59.840Z,102232.31
2018-11-28T09:50:29.340Z,102234.09
2018-11-28T09:52:58.782Z,102232.26
2018-11-28T09:55:29.175Z,102230.07
2018-11-28T09:57:59.342Z,102232.20
2018-11-28T10:00:29.915Z,102229.29
2018-11-28T10:03:02.029Z,102235.28
2018-11-28T10:05:34.177Z,102227.94
2018-11-28T10:08:03.842Z,102226.34
2018-11-28T10:10:33.363Z,102226.22
2018-11-28T10:13:02.889Z,102235.58
2018-11-28T10:15:35.507Z,102228.06
2018-11-28T10:18:01.823Z,102233.25
2018-11-28T10:20:31.288Z,102234.08
2018-11-28T10:23:00.756Z,102234.44
2018-11-28T10:25:30.183Z,102234.38
2018-11-28T10:28:05.108Z,102237.75
2018-11-28T10:30:36.515Z,102227.50
2018-11-28T10:33:09.744Z,102226.89
2018-11-28T10:35:40.428Z,102227.86
2018-11-28T10:38:10.098Z,102220.95
2018-11-28T10:40:39.627Z,102216.44
2018-11-28T10:43:10.411Z,102227.67
2018-11-28T10:45:39.917Z,102215.80
2018-11-28T10:48:11.892Z,102211.06
2018-11-28T10:50:41.440Z,102216.25
2018-11-28T10:53:10.898Z,102219.75
2018-11-28T10:55:40.444Z,102211.83
2018-11-28T10:58:10.220Z,102220.27
2018-11-28T11:00:44.792Z,102217.50
2018-11-28T11:03:19.433Z,102213.70
2018-11-28T11:05:54.233Z,102210.53
2018-11-28T11:08:25.201Z,102221.84
2018-11-28T11:11:31.313Z,102223.63
2018-11-28T11:14:05.936Z,102224.07
2018-11-28T11:16:35.387Z,102218.38
2018-11-28T11:19:04.877Z,102224.57
2018-11-28T11:21:34.318Z,102227.04
2018-11-28T11:24:03.816Z,102220.66
2018-11-28T11:26:33.300Z,102227.89
2018-11-28T11:29:02.828Z,102213.61
2018-11-28T11:31:32.335Z,102219.08
2018-11-28T11:34:02.144Z,102218.19
2018-11-28T11:36:31.593Z,102211.23
2018-11-28T11:39:01.032Z,102219.36
2018-11-28T11:41:30.501Z,102215.61
2018-11-28T11:44:00.024Z,102210.45
2018-11-28T11:46:29.505Z,102219.08
2018-11-28T11:48:59.009Z,102218.69
2018-11-28T11:51:28.478Z,102214.50
2018-11-28T11:53:57.911Z,102204.19
2018-11-28T11:56:27.389Z,102203.91
2018-11-28T11:58:56.858Z,102202.05
2018-11-28T12:01:26.402Z,102206.13
2018-11-28T12:03:55.884Z,102203.16
2018-11-28T12:06:25.310Z,102192.06
2018-11-28T12:08:56.457Z,102189.20
2018-11-28T12:11:25.952Z,102193.64
2018-11-28T12:13:55.412Z,102199.51
2018-11-28T12:16:24.908Z,102188.41
2018-11-28T12:18:54.344Z,102193.67
2018-11-28T12:21:23.783Z,102183.75
2018-11-28T12:23:53.212Z,102184.65
2018-11-28T12:26:22.640Z,102185.55
2018-11-28T12:28:52.080Z,102184.47
2018-11-28T12:31:21.646Z,102182.49
2018-11-28T12:33:51.049Z,102170.89
2018-11-28T12:36:20.580Z,102172.18
2018-11-28T12:38:50.019Z,102173.04
2018-11-28T12:41:19.489Z,102167.48
2018-11-28T12:43:48.920Z,102172.25
2018-11-28T12:46:18.394Z,102174.44
2018-11-28T12:48:47.805Z,102167.59
2018-11-28T12:51:17.309Z,102168.88
2018-11-28T12:53:46.792Z,102164.52
2018-11-28T12:56:16.300Z,102150.34
2018-11-28T12:58:45.842Z,102155.09
2018-11-28T13:01:15.326Z,102151.63
2018-11-28T13:03:44.844Z,102152.52
2018-11-28T13:06:14.256Z,102152.13
2018-11-28T13:08:43.760Z,102145.39
2018-11-28T13:11:13.188Z,102138.16
2018-11-28T13:13:42.670Z,102145.99
2018-11-28T13:16:12.172Z,102143.52
2018-11-28T13:18:41.680Z,102145.31
2018-11-28T13:21:11.184Z,102133.30
2018-11-28T13:23:40.617Z,102122.09
2018-11-28T13:26:17.952Z,102125.57
2018-11-28T13:28:47.404Z,102130.73
2018-11-28T13:31:16.956Z,102135.39
2018-11-28T13:33:46.488Z,102123.39
2018-11-28T13:36:15.951Z,102117.73
2018-11-28T13:38:45.446Z,102120.20
2018-11-28T13:41:14.998Z,102123.18
2018-11-28T13:43:44.481Z,102117.63
2018-11-28T13:46:13.952Z,102126.84
2018-11-28T13:48:43.690Z,102125.05
2018-11-28T13:51:13.171Z,102118.89
2018-11-28T13:53:42.692Z,102113.66
2018-11-28T13:58:41.796Z,102127.33
2018-11-28T14:01:11.275Z,102129.30
2018-11-28T14:03:40.830Z,102129.98
2018-11-28T14:06:10.291Z,102131.37
2018-11-28T14:08:39.812Z,102130.27
2018-11-28T14:11:09.388Z,102134.42
2018-11-28T14:13:38.885Z,102132.14
2018-11-28T14:16:08.504Z,102124.52
2018-11-28T14:18:38.076Z,102134.61
2018-11-28T14:21:08.230Z,102133.89
2018-11-28T14:23:37.776Z,102142.59
2018-11-28T14:26:07.340Z,102151.81
2018-11-28T14:28:36.817Z,102131.88
2018-11-28T14:31:07.127Z,102131.06
2018-11-28T14:33:36.555Z,102136.20
2018-11-28T14:36:06.791Z,102128.04
2018-11-28T14:38:36.363Z,102135.44
2018-11-28T14:41:06.993Z,102126.63
2018-11-28T14:43:36.519Z,102134.64
2018-11-28T14:46:06.023Z,102139.07
2018-11-28T14:48:35.514Z,102129.84
2018-11-28T14:51:05.344Z,102133.41
2018-11-28T14:53:34.823Z,102128.20
2018-11-28T14:56:04.671Z,102131.34
2018-11-28T14:58:34.125Z,102121.72
2018-11-28T15:01:03.668Z,102126.96
2018-11-28T15:03:33.086Z,102132.05
2018-11-28T15:06:08.185Z,102132.22
2018-11-28T15:08:38.027Z,102130.75
2018-11-28T15:11:10.194Z,102132.70
2018-11-28T15:13:40.598Z,102125.66
2018-11-28T15:16:10.115Z,102139.58
2018-11-28T15:18:39.895Z,102126.30
2018-11-28T15:21:11.214Z,102125.57
2018-11-28T15:23:41.388Z,102127.52
2018-11-28T15:26:10.924Z,102132.72
2018-11-28T15:28:40.578Z,102128.05
2018-11-28T15:31:10.045Z,102127.94
2018-11-28T15:33:39.634Z,102126.14
2018-11-28T15:36:09.151Z,102121.90
2018-11-28T15:38:38.613Z,102123.34
2018-11-28T15:41:08.117Z,102130.83
2018-11-28T15:43:37.564Z,102136.28
2018-11-28T15:46:07.260Z,102128.06
2018-11-28T15:48:36.736Z,102129.23
2018-11-28T15:51:06.876Z,102130.68
2018-11-28T15:53:36.342Z,102133.53
2018-11-28T15:56:06.125Z,102127.38
2018-11-28T15:58:35.855Z,102127.53
2018-11-28T16:01:05.659Z,102132.28
2018-11-28T16:03:35.289Z,102123.88
2018-11-28T16:06:04.992Z,102122.86
2018-11-28T16:08:34.490Z,102138.33
2018-11-28T16:11:08.766Z,102127.53
2018-11-28T16:13:38.188Z,102125.13
2018-11-28T16:16:08.339Z,102127.61
2018-11-28T16:18:37.984Z,102126.48
2018-11-28T16:21:07.565Z,102131.66
2018-11-28T16:23:37.378Z,102135.91
2018-11-28T16:26:06.908Z,102146.07
2018-11-28T16:28:36.339Z,102143.89
2018-11-28T16:31:05.864Z,102131.23
2018-11-28T16:33:35.630Z,102141.78
2018-11-28T16:36:05.098Z,102137.69
2018-11-28T16:38:34.534Z,102142.20
2018-11-28T16:41:04.490Z,102137.33
2018-11-28T16:43:33.990Z,102140.30
2018-11-28T16:46:03.618Z,102151.73
2018-11-28T16:48:33.184Z,102150.52
2018-11-28T16:51:02.736Z,102163.78
2018-11-28T16:53:32.245Z,102151.86
2018-11-28T16:56:01.928Z,102152.64
2018-11-28T16:58:31.983Z,102152.70
2018-11-28T17:01:01.440Z,102149.00
2018-11-28T17:03:30.928Z,102143.47
2018-11-28T17:06:00.435Z,102146.05
2018-11-28T17:08:30.148Z,102137.70
2018-11-28T17:10:59.660Z,102139.53
2018-11-28T17:13:29.180Z,102139.44
2018-11-28T17:15:58.775Z,102134.72
2018-11-28T17:18:28.322Z,102129.23
2018-11-28T17:20:57.829Z,102128.72
2018-11-28T17:23:27.390Z,102129.38
2018-11-28T17:25:57.027Z,102125.91
2018-11-28T17:28:26.468Z,102123.64
2018-11-28T17:30:55.919Z,102136.11
2018-11-28T17:33:25.546Z,102129.84
2018-11-28T17:35:55.113Z,102124.97
2018-11-28T17:38:24.628Z,102132.85
2018-11-28T17:40:54.256Z,102136.84
2018-11-28T17:43:23.847Z,102132.36
2018-11-28T17:45:53.476Z,102133.52
2018-11-28T17:48:22.968Z,102142.52
2018-11-28T17:50:52.430Z,102133.72
2018-11-28T17:53:22.002Z,102139.11
2018-11-28T17:55:56.628Z,102132.19
2018-11-28T17:58:26.184Z,102140.66
2018-11-28T18:00:55.724Z,102118.97
2018-11-28T18:03:25.543Z,102124.63
2018-11-28T18:05:55.046Z,102126.18
2018-11-28T18:08:24.520Z,102121.05
2018-11-28T18:10:54.259Z,102126.56
2018-11-28T18:13:23.853Z,102126.30
2018-11-28T18:15:55.718Z,102126.32
2018-11-28T18:18:26.531Z,102119.77
2018-11-28T18:20:56.016Z,102108.20
2018-11-28T18:23:25.495Z,102112.56
2018-11-28T18:25:55.248Z,102118.47
2018-11-28T18:28:24.717Z,102104.62
2018-11-28T18:30:54.163Z,102106.92
2018-11-28T18:33:23.777Z,102113.33
2018-11-28T18:35:53.408Z,102100.65
2018-11-28T18:38:23.009Z,102105.90
2018-11-28T18:40:52.468Z,102101.79
2018-11-28T18:43:22.029Z,102102.83
2018-11-28T18:45:54.693Z,102102.31
2018-11-28T18:48:24.411Z,102098.20
2018-11-28T18:50:53.969Z,102113.59
2018-11-28T18:53:23.737Z,102100.38
2018-11-28T18:55:53.353Z,102108.71
2018-11-28T18:58:22.801Z,102112.95
2018-11-28T19:00:52.320Z,102114.62
2018-11-28T19:03:21.959Z,102106.27
2018-11-28T19:05:51.420Z,102108.06
2018-11-28T19:08:21.009Z,102109.85
2018-11-28T19:10:50.466Z,102106.00
2018-11-28T19:13:20.107Z,102111.22
2018-11-28T19:15:49.572Z,102114.93
2018-11-28T19:18:19.305Z,102119.16
2018-11-28T19:20:48.798Z,102114.17
2018-11-28T19:23:18.288Z,102121.28
2018-11-28T19:25:50.101Z,102128.34
2018-11-28T19:28:17.384Z,102119.75
2018-11-28T19:30:46.911Z,102118.22
2018-11-28T19:33:16.372Z,102120.54
2018-11-28T19:35:45.915Z,102118.36
2018-11-28T19:38:16.116Z,102133.37
2018-11-28T19:40:58.400Z,102124.65
2018-11-28T19:43:27.964Z,102129.18
2018-11-28T19:45:58.544Z,102138.81
2018-11-28T19:48:28.127Z,102127.53
2018-11-28T19:50:57.545Z,102129.34
2018-11-28T19:53:27.078Z,102135.63
2018-11-28T19:55:56.928Z,102129.09
2018-11-28T19:58:26.421Z,102127.98
2018-11-28T20:00:55.924Z,102134.27
2018-11-28T20:03:25.418Z,102127.47
2018-11-28T20:05:55.041Z,102115.29
2018-11-28T20:08:24.530Z,102114.78
2018-11-28T20:10:54.012Z,102115.16
2018-11-28T20:13:23.449Z,102115.94
2018-11-28T20:15:53.978Z,102121.97
2018-11-28T20:18:23.428Z,102119.67
2018-11-28T20:20:52.930Z,102127.75
2018-11-28T20:23:22.341Z,102132.40
2018-11-28T20:25:51.967Z,102124.97
2018-11-28T20:28:21.439Z,102142.79
2018-11-28T20:30:50.935Z,102129.08
2018-11-28T20:33:20.417Z,102121.37
2018-11-28T20:35:50.758Z,102125.10
2018-11-28T20:38:27.884Z,102127.92
2018-11-28T20:40:57.349Z,102127.41
2018-11-28T20:43:26.822Z,102122.16
2018-11-28T20:45:56.260Z,102137.16
2018-11-28T20:48:25.744Z,102138.70
2018-11-28T20:50:55.262Z,102131.78
2018-11-28T20:53:24.753Z,102134.08
2018-11-28T20:55:54.259Z,102131.77
2018-11-28T20:58:23.701Z,102129.85
2018-11-28T21:00:53.194Z,102144.34
2018-11-28T21:03:22.700Z,102136.27
2018-11-28T21:05:52.242Z,102126.27
2018-11-28T21:08:21.710Z,102109.00
2018-11-28T21:10:51.552Z,102104.00
2018-11-28T21:13:21.012Z,102106.19
2018-11-28T21:15:50.464Z,102091.70
2018-11-28T21:18:20.026Z,102093.77
2018-11-28T21:20:49.526Z,102100.42
2018-11-28T21:23:20.328Z,102105.30
2018-11-28T21:25:50.281Z,102089.41
2018-11-28T21:28:19.765Z,102089.79
2018-11-28T21:30:49.281Z,102098.77
2018-11-28T21:33:18.855Z,102079.66
2018-11-28T21:35:51.532Z,102080.82
2018-11-28T21:38:21.006Z,102079.54
2018-11-28T21:40:50.489Z,102069.03
2018-11-28T21:43:19.976Z,102071.59
2018-11-28T21:45:49.649Z,102074.54
2018-11-28T21:48:19.929Z,102071.85
2018-11-28T21:50:49.374Z,102082.88
2018-11-28T21:53:18.828Z,102087.61
2018-11-28T21:55:48.332Z,102088.77
2018-11-28T21:58:17.792Z,102090.56
2018-11-28T22:00:47.307Z,102087.48
2018-11-28T22:03:16.950Z,102080.95
2018-11-28T22:05:46.453Z,102076.72
2018-11-28T22:08:15.969Z,102069.55
2018-11-28T22:10:45.426Z,102072.50
2018-11-28T22:13:14.972Z,102072.41
2018-11-28T22:15:44.457Z,102065.70
2018-11-28T22:18:13.972Z,102069.80
2018-11-28T22:20:43.417Z,102069.55
2018-11-28T22:23:12.894Z,102064.30
2018-11-28T22:25:42.396Z,102064.72
2018-11-28T22:28:11.909Z,102073.81
2018-11-28T22:30:41.359Z,102064.47
2018-11-28T22:33:10.908Z,102063.44
2018-11-28T22:35:40.340Z,102055.88
2018-11-28T22:38:09.809Z,102065.23
2018-11-28T22:40:39.264Z,102060.62
2018-11-28T22:43:08.756Z,102069.34
2018-11-28T22:45:38.333Z,102065.62
2018-11-28T22:48:07.812Z,102056.27
2018-11-28T22:50:37.364Z,102056.15
2018-11-28T22:53:07.365Z,102053.07
2018-11-28T22:55:37.193Z,102050.13
2018-11-28T22:58:07.020Z,102054.61
2018-11-28T23:00:41.897Z,102058.45
2018-11-28T23:03:11.800Z,102055.89
2018-11-28T23:05:51.765Z,102049.66
2018-11-28T23:08:22.322Z,102039.41
2018-11-28T23:10:52.621Z,102041.59
2018-11-28T23:13:24.829Z,102033.77
2018-11-28T23:15:54.328Z,102031.73
2018-11-28T23:18:23.788Z,102021.61
2018-11-28T23:20:53.303Z,102021.10
2018-11-28T23:23:22.841Z,102032.16
2018-11-28T23:25:52.369Z,102033.19
2018-11-28T23:28:21.841Z,102031.02
2018-11-28T23:30:51.312Z,102039.20
2018-11-28T23:33:20.833Z,102034.34
2018-11-28T23:35:50.288Z,102024.39
2018-11-28T23:38:19.766Z,102005.56
2018-11-28T23:40:49.212Z,102007.58
2018-11-28T23:43:18.758Z,102002.71
2018-11-28T23:45:48.273Z,101994.00
2018-11-28T23:48:17.789Z,101997.72
2018-11-28T23:50:47.284Z,101999.89
2018-11-28T23:53:16.780Z,101995.71
2018-11-28T23:55:46.233Z,102011.45
2018-11-28T23:58:15.800Z,102003.78
